sensor_id;sensor_type;location;lat;lon;timestamp;temperature;humidity
75010;DHT22;63564;46.840;18.336;2022-09-27T00:02:34;12.20;94.18
75010;DHT22;63564;46.840;18.336;2022-09-27T00:05:34;12.06;94.97
75010;DHT22;63564;46.840;18.336;2022-09-27T00:08:35;11.92;95.86
75010;DHT22;63564;46.840;18.336;2022-09-27T00:11:39;11.88;96.29
75010;DHT22;63564;46.840;18.336;2022-09-27T00:14:41;11.77;96.28
75010;DHT22;63564;46.840;18.336;2022-09-27T00:17:42;11.71;95.80
75010;DHT22;63564;46.840;18.336;2022-09-27T00:20:42;11.41;95.83
75010;DHT22;63564;46.840;18.336;2022-09-27T00:23:43;11.20;96.87
75010;DHT22;63564;46.840;18.336;2022-09-27T00:26:43;11.24;96.60
75010;DHT22;63564;46.840;18.336;2022-09-27T00:29:46;11.26;96.18
75010;DHT22;63564;46.840;18.336;2022-09-27T00:32:46;11.19;96.49
75010;DHT22;63564;46.840;18.336;2022-09-27T00:35:47;11.02;96.46
75010;DHT22;63564;46.840;18.336;2022-09-27T00:38:48;11.17;95.52
75010;DHT22;63564;46.840;18.336;2022-09-27T00:41:49;11.27;95.59
75010;DHT22;63564;46.840;18.336;2022-09-27T00:45:02;11.19;94.68
75010;DHT22;63564;46.840;18.336;2022-09-27T00:48:04;10.82;95.45
75010;DHT22;63564;46.840;18.336;2022-09-27T00:51:05;10.65;96.27
75010;DHT22;63564;46.840;18.336;2022-09-27T00:54:09;10.52;96.48
75010;DHT22;63564;46.840;18.336;2022-09-27T00:57:11;10.41;96.54
75010;DHT22;63564;46.840;18.336;2022-09-27T01:00:12;10.40;96.54
75010;DHT22;63564;46.840;18.336;2022-09-27T01:03:22;10.41;96.55
75010;DHT22;63564;46.840;18.336;2022-09-27T01:06:24;10.37;96.60
75010;DHT22;63564;46.840;18.336;2022-09-27T01:09:25;10.44;95.75
75010;DHT22;63564;46.840;18.336;2022-09-27T01:12:48;10.57;96.28
75010;DHT22;63564;46.840;18.336;2022-09-27T01:19:06;10.27;96.85
75010;DHT22;63564;46.840;18.336;2022-09-27T01:25:42;10.07;97.18
75010;DHT22;63564;46.840;18.336;2022-09-27T01:42:30;10.31;98.57
75010;DHT22;63564;46.840;18.336;2022-09-27T01:45:57;10.50;98.62
75010;DHT22;63564;46.840;18.336;2022-09-27T01:48:59;10.58;98.69
75010;DHT22;63564;46.840;18.336;2022-09-27T01:52:04;10.55;98.68
75010;DHT22;63564;46.840;18.336;2022-09-27T01:55:10;10.54;98.74
75010;DHT22;63564;46.840;18.336;2022-09-27T01:58:36;10.52;98.77
75010;DHT22;63564;46.840;18.336;2022-09-27T02:01:40;10.67;98.72
75010;DHT22;63564;46.840;18.336;2022-09-27T02:04:43;10.73;98.59
75010;DHT22;63564;46.840;18.336;2022-09-27T02:07:49;10.51;98.26
75010;DHT22;63564;46.840;18.336;2022-09-27T02:10:53;10.38;98.38
75010;DHT22;63564;46.840;18.336;2022-09-27T02:13:57;10.41;98.46
75010;DHT22;63564;46.840;18.336;2022-09-27T02:23:41;10.06;97.87
75010;DHT22;63564;46.840;18.336;2022-09-27T02:26:44;9.92;98.23
75010;DHT22;63564;46.840;18.336;2022-09-27T02:29:57;10.20;98.62
75010;DHT22;63564;46.840;18.336;2022-09-27T02:32:59;10.14;98.39
75010;DHT22;63564;46.840;18.336;2022-09-27T02:36:00;10.16;98.38
75010;DHT22;63564;46.840;18.336;2022-09-27T02:39:00;10.17;98.58
75010;DHT22;63564;46.840;18.336;2022-09-27T02:42:02;10.05;98.32
75010;DHT22;63564;46.840;18.336;2022-09-27T02:45:04;10.10;98.64
75010;DHT22;63564;46.840;18.336;2022-09-27T02:48:24;10.21;98.68
75010;DHT22;63564;46.840;18.336;2022-09-27T02:51:40;10.13;98.70
75010;DHT22;63564;46.840;18.336;2022-09-27T02:58:26;10.03;98.79
75010;DHT22;63564;46.840;18.336;2022-09-27T03:07:36;10.12;99.15
75010;DHT22;63564;46.840;18.336;2022-09-27T03:10:37;10.17;99.20
75010;DHT22;63564;46.840;18.336;2022-09-27T03:13:38;10.29;99.23
75010;DHT22;63564;46.840;18.336;2022-09-27T03:16:39;10.29;99.22
75010;DHT22;63564;46.840;18.336;2022-09-27T03:19:39;10.31;99.11
75010;DHT22;63564;46.840;18.336;2022-09-27T03:22:39;10.29;99.08
75010;DHT22;63564;46.840;18.336;2022-09-27T03:25:41;10.27;98.85
75010;DHT22;63564;46.840;18.336;2022-09-27T03:28:41;10.25;98.96
75010;DHT22;63564;46.840;18.336;2022-09-27T03:31:42;10.36;98.82
75010;DHT22;63564;46.840;18.336;2022-09-27T03:34:42;10.20;98.45
75010;DHT22;63564;46.840;18.336;2022-09-27T03:37:42;10.20;98.50
75010;DHT22;63564;46.840;18.336;2022-09-27T03:40:43;10.17;98.49
75010;DHT22;63564;46.840;18.336;2022-09-27T03:43:44;10.10;98.40
75010;DHT22;63564;46.840;18.336;2022-09-27T03:46:44;10.07;98.45
75010;DHT22;63564;46.840;18.336;2022-09-27T03:49:45;10.03;98.35
75010;DHT22;63564;46.840;18.336;2022-09-27T03:52:45;9.99;98.48
75010;DHT22;63564;46.840;18.336;2022-09-27T03:55:45;9.99;98.57
75010;DHT22;63564;46.840;18.336;2022-09-27T03:58:47;10.14;98.66
75010;DHT22;63564;46.840;18.336;2022-09-27T04:01:47;10.24;98.48
75010;DHT22;63564;46.840;18.336;2022-09-27T04:04:48;10.21;98.65
75010;DHT22;63564;46.840;18.336;2022-09-27T04:07:48;10.09;98.59
75010;DHT22;63564;46.840;18.336;2022-09-27T04:10:48;10.21;98.94
75010;DHT22;63564;46.840;18.336;2022-09-27T04:13:49;10.17;98.93
75010;DHT22;63564;46.840;18.336;2022-09-27T04:16:49;10.18;99.10
75010;DHT22;63564;46.840;18.336;2022-09-27T04:19:49;10.29;99.26
75010;DHT22;63564;46.840;18.336;2022-09-27T04:22:50;10.40;99.17
75010;DHT22;63564;46.840;18.336;2022-09-27T04:25:50;10.51;99.13
75010;DHT22;63564;46.840;18.336;2022-09-27T04:28:51;10.57;98.88
75010;DHT22;63564;46.840;18.336;2022-09-27T04:31:52;10.55;98.77
75010;DHT22;63564;46.840;18.336;2022-09-27T04:34:52;10.51;98.99
75010;DHT22;63564;46.840;18.336;2022-09-27T04:38:11;10.65;99.27
75010;DHT22;63564;46.840;18.336;2022-09-27T04:41:12;10.64;99.17
75010;DHT22;63564;46.840;18.336;2022-09-27T04:44:13;10.75;98.99
75010;DHT22;63564;46.840;18.336;2022-09-27T04:47:14;10.71;98.77
75010;DHT22;63564;46.840;18.336;2022-09-27T04:50:15;10.71;98.58
75010;DHT22;63564;46.840;18.336;2022-09-27T04:53:16;10.73;98.85
75010;DHT22;63564;46.840;18.336;2022-09-27T04:56:16;10.72;98.42
75010;DHT22;63564;46.840;18.336;2022-09-27T04:59:17;10.82;98.53
75010;DHT22;63564;46.840;18.336;2022-09-27T05:02:17;10.86;98.39
75010;DHT22;63564;46.840;18.336;2022-09-27T05:05:18;11.00;98.28
75010;DHT22;63564;46.840;18.336;2022-09-27T05:08:18;10.86;98.29
75010;DHT22;63564;46.840;18.336;2022-09-27T05:11:20;10.91;98.44
75010;DHT22;63564;46.840;18.336;2022-09-27T05:14:21;10.91;98.71
75010;DHT22;63564;46.840;18.336;2022-09-27T05:17:21;10.79;98.60
75010;DHT22;63564;46.840;18.336;2022-09-27T05:20:23;10.93;98.91
75010;DHT22;63564;46.840;18.336;2022-09-27T05:23:25;11.03;98.96
75010;DHT22;63564;46.840;18.336;2022-09-27T05:26:25;11.15;98.90
75010;DHT22;63564;46.840;18.336;2022-09-27T05:29:26;11.20;98.47
75010;DHT22;63564;46.840;18.336;2022-09-27T05:32:27;11.36;97.81
75010;DHT22;63564;46.840;18.336;2022-09-27T05:35:28;11.34;97.49
75010;DHT22;63564;46.840;18.336;2022-09-27T05:38:28;11.50;97.38
75010;DHT22;63564;46.840;18.336;2022-09-27T05:41:29;11.54;96.95
75010;DHT22;63564;46.840;18.336;2022-09-27T05:44:31;11.68;97.45
75010;DHT22;63564;46.840;18.336;2022-09-27T05:47:32;13.04;98.87
75010;DHT22;63564;46.840;18.336;2022-09-27T05:50:32;13.02;94.56
75010;DHT22;63564;46.840;18.336;2022-09-27T05:53:33;12.77;93.99
75010;DHT22;63564;46.840;18.336;2022-09-27T05:56:33;12.78;93.63
75010;DHT22;63564;46.840;18.336;2022-09-27T05:59:34;12.59;94.75
75010;DHT22;63564;46.840;18.336;2022-09-27T06:02:34;12.53;95.55
75010;DHT22;63564;46.840;18.336;2022-09-27T06:05:36;12.56;95.66
75010;DHT22;63564;46.840;18.336;2022-09-27T06:08:37;12.89;95.55
75010;DHT22;63564;46.840;18.336;2022-09-27T06:11:38;13.19;94.65
75010;DHT22;63564;46.840;18.336;2022-09-27T06:14:38;13.02;94.10
75010;DHT22;63564;46.840;18.336;2022-09-27T06:17:39;13.33;93.88
75010;DHT22;63564;46.840;18.336;2022-09-27T06:20:40;13.35;94.27
75010;DHT22;63564;46.840;18.336;2022-09-27T06:23:42;12.97;94.45
75010;DHT22;63564;46.840;18.336;2022-09-27T06:26:42;13.09;93.78
75010;DHT22;63564;46.840;18.336;2022-09-27T06:29:42;13.20;96.97
75010;DHT22;63564;46.840;18.336;2022-09-27T06:32:43;13.23;94.39
75010;DHT22;63564;46.840;18.336;2022-09-27T06:35:44;13.15;95.21
75010;DHT22;63564;46.840;18.336;2022-09-27T06:38:45;13.27;94.48
75010;DHT22;63564;46.840;18.336;2022-09-27T06:41:47;13.35;93.59
75010;DHT22;63564;46.840;18.336;2022-09-27T06:44:47;13.20;94.30
75010;DHT22;63564;46.840;18.336;2022-09-27T06:47:49;14.24;95.63
75010;DHT22;63564;46.840;18.336;2022-09-27T06:50:49;16.34;90.45
75010;DHT22;63564;46.840;18.336;2022-09-27T06:53:49;16.54;88.33
75010;DHT22;63564;46.840;18.336;2022-09-27T06:56:50;17.51;82.72
75010;DHT22;63564;46.840;18.336;2022-09-27T06:59:50;16.86;79.73
75010;DHT22;63564;46.840;18.336;2022-09-27T07:03:09;15.42;84.38
75010;DHT22;63564;46.840;18.336;2022-09-27T07:06:16;14.87;87.18
75010;DHT22;63564;46.840;18.336;2022-09-27T07:09:17;14.21;89.52
75010;DHT22;63564;46.840;18.336;2022-09-27T07:12:17;14.83;94.72
75010;DHT22;63564;46.840;18.336;2022-09-27T07:15:21;14.73;89.41
75010;DHT22;63564;46.840;18.336;2022-09-27T07:18:22;14.12;91.19
75010;DHT22;63564;46.840;18.336;2022-09-27T07:21:23;13.75;91.38
75010;DHT22;63564;46.840;18.336;2022-09-27T07:24:23;14.11;90.76
75010;DHT22;63564;46.840;18.336;2022-09-27T07:27:23;14.07;92.99
75010;DHT22;63564;46.840;18.336;2022-09-27T07:30:25;13.83;92.57
75010;DHT22;63564;46.840;18.336;2022-09-27T07:33:26;14.11;94.07
75010;DHT22;63564;46.840;18.336;2022-09-27T07:36:26;14.32;92.15
75010;DHT22;63564;46.840;18.336;2022-09-27T07:39:27;14.12;94.43
75010;DHT22;63564;46.840;18.336;2022-09-27T07:42:27;14.79;92.03
75010;DHT22;63564;46.840;18.336;2022-09-27T07:45:28;14.57;91.50
75010;DHT22;63564;46.840;18.336;2022-09-27T07:48:28;15.32;93.83
75010;DHT22;63564;46.840;18.336;2022-09-27T07:51:29;16.35;87.93
75010;DHT22;63564;46.840;18.336;2022-09-27T07:54:29;15.46;86.09
75010;DHT22;63564;46.840;18.336;2022-09-27T07:57:30;16.13;89.53
75010;DHT22;63564;46.840;18.336;2022-09-27T08:00:30;16.04;85.09
75010;DHT22;63564;46.840;18.336;2022-09-27T08:03:30;15.49;88.06
75010;DHT22;63564;46.840;18.336;2022-09-27T08:06:31;15.65;87.01
75010;DHT22;63564;46.840;18.336;2022-09-27T08:09:31;15.32;87.43
75010;DHT22;63564;46.840;18.336;2022-09-27T08:12:32;15.49;87.56
75010;DHT22;63564;46.840;18.336;2022-09-27T08:15:33;15.70;86.68
75010;DHT22;63564;46.840;18.336;2022-09-27T08:18:38;16.00;86.34
75010;DHT22;63564;46.840;18.336;2022-09-27T08:21:38;16.04;86.39
75010;DHT22;63564;46.840;18.336;2022-09-27T08:24:41;15.85;86.28
75010;DHT22;63564;46.840;18.336;2022-09-27T08:27:42;15.65;87.91
75010;DHT22;63564;46.840;18.336;2022-09-27T08:30:42;16.07;86.31
75010;DHT22;63564;46.840;18.336;2022-09-27T08:33:42;16.31;87.05
75010;DHT22;63564;46.840;18.336;2022-09-27T08:36:44;16.08;86.87
75010;DHT22;63564;46.840;18.336;2022-09-27T08:39:44;16.07;86.41
75010;DHT22;63564;46.840;18.336;2022-09-27T08:42:50;15.79;87.92
75010;DHT22;63564;46.840;18.336;2022-09-27T08:46:06;15.90;87.81
75010;DHT22;63564;46.840;18.336;2022-09-27T08:49:15;15.59;88.97
75010;DHT22;63564;46.840;18.336;2022-09-27T08:52:22;15.66;88.48
75010;DHT22;63564;46.840;18.336;2022-09-27T08:55:36;15.80;88.04
75010;DHT22;63564;46.840;18.336;2022-09-27T08:58:47;15.86;87.50
75010;DHT22;63564;46.840;18.336;2022-09-27T09:01:50;15.87;89.03
75010;DHT22;63564;46.840;18.336;2022-09-27T09:05:06;16.00;87.21
75010;DHT22;63564;46.840;18.336;2022-09-27T09:15:55;16.01;86.91
75010;DHT22;63564;46.840;18.336;2022-09-27T09:35:39;16.14;88.12
75010;DHT22;63564;46.840;18.336;2022-09-27T09:38:57;15.82;87.96
75010;DHT22;63564;46.840;18.336;2022-09-27T09:45:20;15.97;88.10
75010;DHT22;63564;46.840;18.336;2022-09-27T09:48:29;15.99;87.94
75010;DHT22;63564;46.840;18.336;2022-09-27T09:51:37;16.25;86.94
75010;DHT22;63564;46.840;18.336;2022-09-27T09:55:22;16.06;87.26
75010;DHT22;63564;46.840;18.336;2022-09-27T09:58:38;16.16;86.72
75010;DHT22;63564;46.840;18.336;2022-09-27T10:01:45;16.35;87.86
75010;DHT22;63564;46.840;18.336;2022-09-27T10:04:47;16.44;86.42
75010;DHT22;63564;46.840;18.336;2022-09-27T10:07:48;16.62;85.82
75010;DHT22;63564;46.840;18.336;2022-09-27T10:10:50;16.92;84.09
75010;DHT22;63564;46.840;18.336;2022-09-27T10:13:52;16.86;83.30
75010;DHT22;63564;46.840;18.336;2022-09-27T10:16:57;17.04;83.77
75010;DHT22;63564;46.840;18.336;2022-09-27T10:20:01;17.31;81.34
75010;DHT22;63564;46.840;18.336;2022-09-27T10:23:12;17.14;83.39
75010;DHT22;63564;46.840;18.336;2022-09-27T10:26:17;17.55;81.73
75010;DHT22;63564;46.840;18.336;2022-09-27T10:32:36;17.61;79.36
75010;DHT22;63564;46.840;18.336;2022-09-27T10:35:41;17.44;80.68
75010;DHT22;63564;46.840;18.336;2022-09-27T10:38:51;18.45;78.29
75010;DHT22;63564;46.840;18.336;2022-09-27T10:41:52;17.93;79.04
75010;DHT22;63564;46.840;18.336;2022-09-27T10:44:52;18.13;79.66
75010;DHT22;63564;46.840;18.336;2022-09-27T10:47:54;17.79;80.33
75010;DHT22;63564;46.840;18.336;2022-09-27T10:51:05;17.88;78.17
75010;DHT22;63564;46.840;18.336;2022-09-27T10:54:22;17.82;79.27
75010;DHT22;63564;46.840;18.336;2022-09-27T10:57:27;18.03;77.25
75010;DHT22;63564;46.840;18.336;2022-09-27T11:00:35;17.74;79.44
75010;DHT22;63564;46.840;18.336;2022-09-27T11:03:44;18.05;78.74
75010;DHT22;63564;46.840;18.336;2022-09-27T11:06:45;18.16;77.75
75010;DHT22;63564;46.840;18.336;2022-09-27T11:09:56;18.20;78.24
75010;DHT22;63564;46.840;18.336;2022-09-27T11:13:15;18.36;77.50
75010;DHT22;63564;46.840;18.336;2022-09-27T11:16:23;18.47;75.84
75010;DHT22;63564;46.840;18.336;2022-09-27T11:29:53;18.84;75.00
75010;DHT22;63564;46.840;18.336;2022-09-27T11:43:42;18.36;80.12
75010;DHT22;63564;46.840;18.336;2022-09-27T11:46:55;18.89;75.63
75010;DHT22;63564;46.840;18.336;2022-09-27T11:53:47;19.08;74.78
75010;DHT22;63564;46.840;18.336;2022-09-27T12:07:26;18.14;77.68
75010;DHT22;63564;46.840;18.336;2022-09-27T12:10:32;18.30;78.40
75010;DHT22;63564;46.840;18.336;2022-09-27T12:13:47;18.75;74.41
75010;DHT22;63564;46.840;18.336;2022-09-27T12:16:49;18.82;75.27
75010;DHT22;63564;46.840;18.336;2022-09-27T12:19:53;19.18;73.27
75010;DHT22;63564;46.840;18.336;2022-09-27T12:23:01;19.09;74.55
75010;DHT22;63564;46.840;18.336;2022-09-27T12:26:10;19.53;72.68
75010;DHT22;63564;46.840;18.336;2022-09-27T12:29:21;19.77;70.61
75010;DHT22;63564;46.840;18.336;2022-09-27T12:32:29;19.99;71.48
75010;DHT22;63564;46.840;18.336;2022-09-27T12:35:35;19.51;72.07
75010;DHT22;63564;46.840;18.336;2022-09-27T12:41:55;20.08;69.69
75010;DHT22;63564;46.840;18.336;2022-09-27T12:45:01;20.18;69.26
75010;DHT22;63564;46.840;18.336;2022-09-27T12:48:20;20.08;70.00
75010;DHT22;63564;46.840;18.336;2022-09-27T12:51:23;19.51;73.89
75010;DHT22;63564;46.840;18.336;2022-09-27T13:12:01;14.76;83.85
75010;DHT22;63564;46.840;18.336;2022-09-27T13:15:13;14.05;88.18
75010;DHT22;63564;46.840;18.336;2022-09-27T13:24:50;13.66;93.31
75010;DHT22;63564;46.840;18.336;2022-09-27T13:27:51;13.73;93.31
75010;DHT22;63564;46.840;18.336;2022-09-27T13:30:51;13.87;90.27
75010;DHT22;63564;46.840;18.336;2022-09-27T13:33:52;13.95;88.77
75010;DHT22;63564;46.840;18.336;2022-09-27T13:36:53;14.19;84.45
75010;DHT22;63564;46.840;18.336;2022-09-27T13:46:18;13.78;87.65
75010;DHT22;63564;46.840;18.336;2022-09-27T13:49:35;13.88;85.82
75010;DHT22;63564;46.840;18.336;2022-09-27T13:52:36;13.83;88.79
75010;DHT22;63564;46.840;18.336;2022-09-27T13:55:40;13.64;90.53
75010;DHT22;63564;46.840;18.336;2022-09-27T13:59:01;13.71;86.44
75010;DHT22;63564;46.840;18.336;2022-09-27T14:02:15;13.64;87.14
75010;DHT22;63564;46.840;18.336;2022-09-27T14:05:22;13.57;85.34
75010;DHT22;63564;46.840;18.336;2022-09-27T14:08:32;13.54;84.97
75010;DHT22;63564;46.840;18.336;2022-09-27T14:11:36;13.47;83.40
75010;DHT22;63564;46.840;18.336;2022-09-27T14:14:40;13.50;84.37
75010;DHT22;63564;46.840;18.336;2022-09-27T14:17:42;13.47;84.18
75010;DHT22;63564;46.840;18.336;2022-09-27T14:20:47;13.46;85.69
75010;DHT22;63564;46.840;18.336;2022-09-27T14:23:49;13.42;88.21
75010;DHT22;63564;46.840;18.336;2022-09-27T14:30:24;13.40;86.43
75010;DHT22;63564;46.840;18.336;2022-09-27T14:33:28;13.46;86.32
75010;DHT22;63564;46.840;18.336;2022-09-27T14:36:33;13.38;90.10
75010;DHT22;63564;46.840;18.336;2022-09-27T14:40:00;13.25;90.62
75010;DHT22;63564;46.840;18.336;2022-09-27T14:43:03;13.02;92.03
75010;DHT22;63564;46.840;18.336;2022-09-27T14:46:05;13.02;91.41
75010;DHT22;63564;46.840;18.336;2022-09-27T14:49:23;13.05;90.79
75010;DHT22;63564;46.840;18.336;2022-09-27T14:52:29;13.09;88.66
75010;DHT22;63564;46.840;18.336;2022-09-27T14:55:32;13.09;87.58
75010;DHT22;63564;46.840;18.336;2022-09-27T14:58:34;13.08;88.92
75010;DHT22;63564;46.840;18.336;2022-09-27T15:01:34;12.92;89.59
75010;DHT22;63564;46.840;18.336;2022-09-27T15:04:44;12.88;90.60
75010;DHT22;63564;46.840;18.336;2022-09-27T15:07:47;12.89;88.68
75010;DHT22;63564;46.840;18.336;2022-09-27T15:10:48;12.94;86.66
75010;DHT22;63564;46.840;18.336;2022-09-27T15:13:50;12.88;88.44
75010;DHT22;63564;46.840;18.336;2022-09-27T15:16:52;12.67;91.93
75010;DHT22;63564;46.840;18.336;2022-09-27T15:20:26;12.67;92.37
75010;DHT22;63564;46.840;18.336;2022-09-27T15:23:35;12.63;93.18
75010;DHT22;63564;46.840;18.336;2022-09-27T15:26:43;12.57;91.91
75010;DHT22;63564;46.840;18.336;2022-09-27T15:29:49;12.65;91.24
75010;DHT22;63564;46.840;18.336;2022-09-27T15:32:52;12.49;92.20
75010;DHT22;63564;46.840;18.336;2022-09-27T15:35:56;12.39;93.41
75010;DHT22;63564;46.840;18.336;2022-09-27T15:39:06;12.44;92.15
75010;DHT22;63564;46.840;18.336;2022-09-27T15:45:30;12.29;92.27
75010;DHT22;63564;46.840;18.336;2022-09-27T15:48:33;12.12;94.32
75010;DHT22;63564;46.840;18.336;2022-09-27T15:51:42;12.20;93.80
75010;DHT22;63564;46.840;18.336;2022-09-27T15:54:43;12.13;92.87
75010;DHT22;63564;46.840;18.336;2022-09-27T15:57:46;12.11;93.38
75010;DHT22;63564;46.840;18.336;2022-09-27T16:01:05;12.02;94.29
75010;DHT22;63564;46.840;18.336;2022-09-27T16:04:07;12.03;94.91
75010;DHT22;63564;46.840;18.336;2022-09-27T16:07:09;12.08;93.10
75010;DHT22;63564;46.840;18.336;2022-09-27T16:10:20;12.11;94.12
75010;DHT22;63564;46.840;18.336;2022-09-27T16:13:21;12.06;92.98
75010;DHT22;63564;46.840;18.336;2022-09-27T16:16:21;12.11;93.22
75010;DHT22;63564;46.840;18.336;2022-09-27T16:19:22;12.08;92.91
75010;DHT22;63564;46.840;18.336;2022-09-27T16:22:22;11.96;93.47
75010;DHT22;63564;46.840;18.336;2022-09-27T16:25:24;12.06;94.05
75010;DHT22;63564;46.840;18.336;2022-09-27T16:28:24;12.15;93.91
75010;DHT22;63564;46.840;18.336;2022-09-27T16:31:24;12.03;95.19
75010;DHT22;63564;46.840;18.336;2022-09-27T16:34:25;11.94;94.97
75010;DHT22;63564;46.840;18.336;2022-09-27T16:37:26;11.94;95.06
75010;DHT22;63564;46.840;18.336;2022-09-27T16:40:26;11.91;95.67
75010;DHT22;63564;46.840;18.336;2022-09-27T16:43:28;11.86;96.11
75010;DHT22;63564;46.840;18.336;2022-09-27T16:46:28;11.79;96.67
75010;DHT22;63564;46.840;18.336;2022-09-27T16:49:29;11.77;96.76
75010;DHT22;63564;46.840;18.336;2022-09-27T16:52:48;11.79;97.13
75010;DHT22;63564;46.840;18.336;2022-09-27T16:55:49;11.75;96.98
75010;DHT22;63564;46.840;18.336;2022-09-27T16:58:49;11.78;97.07
75010;DHT22;63564;46.840;18.336;2022-09-27T17:01:50;11.79;97.14
75010;DHT22;63564;46.840;18.336;2022-09-27T17:04:51;11.79;96.27
75010;DHT22;63564;46.840;18.336;2022-09-27T17:07:53;11.74;96.71
75010;DHT22;63564;46.840;18.336;2022-09-27T17:10:53;11.75;97.68
75010;DHT22;63564;46.840;18.336;2022-09-27T17:13:56;11.70;96.64
75010;DHT22;63564;46.840;18.336;2022-09-27T17:16:56;11.75;96.94
75010;DHT22;63564;46.840;18.336;2022-09-27T17:19:57;11.74;96.70
75010;DHT22;63564;46.840;18.336;2022-09-27T17:22:57;11.70;96.33
75010;DHT22;63564;46.840;18.336;2022-09-27T17:26:06;11.65;96.41
75010;DHT22;63564;46.840;18.336;2022-09-27T17:29:08;11.79;95.86
75010;DHT22;63564;46.840;18.336;2022-09-27T17:32:09;11.82;95.11
75010;DHT22;63564;46.840;18.336;2022-09-27T17:35:10;11.82;94.75
75010;DHT22;63564;46.840;18.336;2022-09-27T17:38:11;11.78;95.13
75010;DHT22;63564;46.840;18.336;2022-09-27T17:41:13;11.79;93.73
75010;DHT22;63564;46.840;18.336;2022-09-27T17:44:14;11.86;95.00
75010;DHT22;63564;46.840;18.336;2022-09-27T17:47:15;11.81;96.15
75010;DHT22;63564;46.840;18.336;2022-09-27T17:50:34;11.58;96.27
75010;DHT22;63564;46.840;18.336;2022-09-27T17:53:34;11.40;97.30
75010;DHT22;63564;46.840;18.336;2022-09-27T17:56:39;11.37;97.95
75010;DHT22;63564;46.840;18.336;2022-09-27T17:59:40;11.38;97.80
75010;DHT22;63564;46.840;18.336;2022-09-27T18:02:41;11.38;97.48
75010;DHT22;63564;46.840;18.336;2022-09-27T18:05:41;11.41;97.76
75010;DHT22;63564;46.840;18.336;2022-09-27T18:08:42;11.47;97.05
75010;DHT22;63564;46.840;18.336;2022-09-27T18:11:43;11.51;97.04
75010;DHT22;63564;46.840;18.336;2022-09-27T18:14:44;11.54;97.10
75010;DHT22;63564;46.840;18.336;2022-09-27T18:17:48;11.43;97.45
75010;DHT22;63564;46.840;18.336;2022-09-27T18:20:49;11.44;96.28
75010;DHT22;63564;46.840;18.336;2022-09-27T18:23:51;11.58;96.55
75010;DHT22;63564;46.840;18.336;2022-09-27T18:26:52;11.61;94.99
75010;DHT22;63564;46.840;18.336;2022-09-27T18:29:54;11.64;94.15
75010;DHT22;63564;46.840;18.336;2022-09-27T18:32:55;11.63;93.35
75010;DHT22;63564;46.840;18.336;2022-09-27T18:35:59;11.73;94.40
75010;DHT22;63564;46.840;18.336;2022-09-27T18:39:01;11.73;94.12
75010;DHT22;63564;46.840;18.336;2022-09-27T18:42:02;11.73;93.46
75010;DHT22;63564;46.840;18.336;2022-09-27T18:45:03;11.74;93.29
75010;DHT22;63564;46.840;18.336;2022-09-27T18:48:05;11.82;92.54
75010;DHT22;63564;46.840;18.336;2022-09-27T18:51:18;11.75;92.60
75010;DHT22;63564;46.840;18.336;2022-09-27T18:54:20;11.61;92.86
75010;DHT22;63564;46.840;18.336;2022-09-27T18:57:20;11.61;94.78
75010;DHT22;63564;46.840;18.336;2022-09-27T19:00:21;11.53;94.91
75010;DHT22;63564;46.840;18.336;2022-09-27T19:03:21;11.57;93.29
75010;DHT22;63564;46.840;18.336;2022-09-27T19:06:22;11.63;94.50
75010;DHT22;63564;46.840;18.336;2022-09-27T19:09:23;11.68;93.63
75010;DHT22;63564;46.840;18.336;2022-09-27T19:12:25;11.63;95.08
75010;DHT22;63564;46.840;18.336;2022-09-27T19:15:26;11.53;94.93
75010;DHT22;63564;46.840;18.336;2022-09-27T19:18:27;11.61;95.26
75010;DHT22;63564;46.840;18.336;2022-09-27T19:21:28;11.64;95.68
75010;DHT22;63564;46.840;18.336;2022-09-27T19:24:29;11.63;96.17
75010;DHT22;63564;46.840;18.336;2022-09-27T19:27:29;11.61;95.77
75010;DHT22;63564;46.840;18.336;2022-09-27T19:30:30;11.64;92.49
75010;DHT22;63564;46.840;18.336;2022-09-27T19:33:35;11.63;93.64
75010;DHT22;63564;46.840;18.336;2022-09-27T19:36:35;11.71;93.91
75010;DHT22;63564;46.840;18.336;2022-09-27T19:39:36;11.75;94.27
75010;DHT22;63564;46.840;18.336;2022-09-27T19:42:36;11.75;94.75
75010;DHT22;63564;46.840;18.336;2022-09-27T19:45:36;11.78;93.76
75010;DHT22;63564;46.840;18.336;2022-09-27T19:48:37;11.79;92.35
75010;DHT22;63564;46.840;18.336;2022-09-27T19:51:38;11.81;92.66
75010;DHT22;63564;46.840;18.336;2022-09-27T19:54:38;11.78;91.65
75010;DHT22;63564;46.840;18.336;2022-09-27T19:57:39;11.79;91.57
75010;DHT22;63564;46.840;18.336;2022-09-27T20:00:39;11.68;91.99
75010;DHT22;63564;46.840;18.336;2022-09-27T20:03:41;11.63;90.98
75010;DHT22;63564;46.840;18.336;2022-09-27T20:06:44;11.65;91.00
75010;DHT22;63564;46.840;18.336;2022-09-27T20:09:46;11.55;90.95
75010;DHT22;63564;46.840;18.336;2022-09-27T20:12:46;11.55;89.23
75010;DHT22;63564;46.840;18.336;2022-09-27T20:15:50;11.54;88.57
75010;DHT22;63564;46.840;18.336;2022-09-27T20:19:00;11.40;89.12
75010;DHT22;63564;46.840;18.336;2022-09-27T20:22:00;11.33;89.99
75010;DHT22;63564;46.840;18.336;2022-09-27T20:25:01;11.37;87.80
75010;DHT22;63564;46.840;18.336;2022-09-27T20:28:01;11.33;89.10
75010;DHT22;63564;46.840;18.336;2022-09-27T20:31:03;11.30;87.37
75010;DHT22;63564;46.840;18.336;2022-09-27T20:34:10;11.24;87.20
75010;DHT22;63564;46.840;18.336;2022-09-27T20:37:10;11.26;87.65
75010;DHT22;63564;46.840;18.336;2022-09-27T20:40:11;11.30;85.42
75010;DHT22;63564;46.840;18.336;2022-09-27T20:43:11;11.26;86.59
75010;DHT22;63564;46.840;18.336;2022-09-27T20:46:14;11.22;88.05
75010;DHT22;63564;46.840;18.336;2022-09-27T20:49:16;11.17;86.92
75010;DHT22;63564;46.840;18.336;2022-09-27T20:52:17;11.10;88.05
75010;DHT22;63564;46.840;18.336;2022-09-27T20:55:18;11.03;89.63
75010;DHT22;63564;46.840;18.336;2022-09-27T20:58:19;10.95;89.72
75010;DHT22;63564;46.840;18.336;2022-09-27T21:01:22;10.95;90.28
75010;DHT22;63564;46.840;18.336;2022-09-27T21:04:22;11.02;87.53
75010;DHT22;63564;46.840;18.336;2022-09-27T21:07:23;11.06;85.58
75010;DHT22;63564;46.840;18.336;2022-09-27T21:10:23;11.02;85.34
75010;DHT22;63564;46.840;18.336;2022-09-27T21:13:23;11.03;87.12
75010;DHT22;63564;46.840;18.336;2022-09-27T21:16:26;10.85;90.98
75010;DHT22;63564;46.840;18.336;2022-09-27T21:19:26;10.47;94.00
75010;DHT22;63564;46.840;18.336;2022-09-27T21:22:28;10.33;95.25
75010;DHT22;63564;46.840;18.336;2022-09-27T21:25:29;10.27;93.91